sensor_id;sensor_type;location;lat;lon;timestamp;P1;durP1;ratioP1;P2;durP2;ratioP2
16101;SDS011;56411;52.964;10.540;2022-11-20T00:00:24;33.77;;;17.30;;
16101;SDS011;56411;52.964;10.540;2022-11-20T00:02:51;34.43;;;17.00;;
16101;SDS011;56411;52.964;10.540;2022-11-20T00:05:18;31.40;;;17.13;;
16101;SDS011;56411;52.964;10.540;2022-11-20T00:07:47;30.23;;;16.83;;
16101;SDS011;56411;52.964;10.540;2022-11-20T00:10:14;33.30;;;17.73;;
16101;SDS011;56411;52.964;10.540;2022-11-20T00:12:42;28.93;;;15.90;;
16101;SDS011;56411;52.964;10.540;2022-11-20T00:15:10;31.27;;;16.87;;
16101;SDS011;56411;52.964;10.540;2022-11-20T00:17:37;30.27;;;16.97;;
16101;SDS011;56411;52.964;10.540;2022-11-20T00:20:05;31.70;;;16.73;;
16101;SDS011;56411;52.964;10.540;2022-11-20T00:22:32;30.20;;;17.37;;
16101;SDS011;56411;52.964;10.540;2022-11-20T00:25:01;32.30;;;16.87;;
16101;SDS011;56411;52.964;10.540;2022-11-20T00:27:28;33.73;;;16.97;;
16101;SDS011;56411;52.964;10.540;2022-11-20T00:29:55;29.63;;;16.40;;
16101;SDS011;56411;52.964;10.540;2022-11-20T00:32:22;32.10;;;17.53;;
16101;SDS011;56411;52.964;10.540;2022-11-20T00:34:50;30.67;;;17.07;;
16101;SDS011;56411;52.964;10.540;2022-11-20T00:37:17;31.57;;;16.20;;
16101;SDS011;56411;52.964;10.540;2022-11-20T00:39:44;33.40;;;17.30;;
16101;SDS011;56411;52.964;10.540;2022-11-20T00:42:13;30.20;;;17.93;;
16101;SDS011;56411;52.964;10.540;2022-11-20T00:44:41;29.53;;;17.50;;
16101;SDS011;56411;52.964;10.540;2022-11-20T00:47:08;29.97;;;17.33;;
16101;SDS011;56411;52.964;10.540;2022-11-20T00:49:35;31.03;;;16.93;;
16101;SDS011;56411;52.964;10.540;2022-11-20T00:52:03;28.33;;;16.03;;
16101;SDS011;56411;52.964;10.540;2022-11-20T00:54:30;28.30;;;16.00;;
16101;SDS011;56411;52.964;10.540;2022-11-20T00:56:57;31.50;;;16.83;;
16101;SDS011;56411;52.964;10.540;2022-11-20T00:59:26;32.40;;;17.00;;
16101;SDS011;56411;52.964;10.540;2022-11-20T01:01:54;30.93;;;17.40;;
16101;SDS011;56411;52.964;10.540;2022-11-20T01:04:21;32.80;;;16.60;;
16101;SDS011;56411;52.964;10.540;2022-11-20T01:06:48;29.97;;;17.17;;
16101;SDS011;56411;52.964;10.540;2022-11-20T01:09:15;33.47;;;18.90;;
16101;SDS011;56411;52.964;10.540;2022-11-20T01:11:43;34.80;;;18.37;;
16101;SDS011;56411;52.964;10.540;2022-11-20T01:14:13;30.60;;;17.37;;
16101;SDS011;56411;52.964;10.540;2022-11-20T01:16:46;34.07;;;18.07;;
16101;SDS011;56411;52.964;10.540;2022-11-20T01:19:15;32.67;;;18.80;;
16101;SDS011;56411;52.964;10.540;2022-11-20T01:21:45;35.30;;;19.47;;
16101;SDS011;56411;52.964;10.540;2022-11-20T01:24:15;36.80;;;19.73;;
16101;SDS011;56411;52.964;10.540;2022-11-20T01:26:43;35.67;;;19.57;;
16101;SDS011;56411;52.964;10.540;2022-11-20T01:29:13;36.40;;;19.07;;
16101;SDS011;56411;52.964;10.540;2022-11-20T01:31:41;37.60;;;20.20;;
16101;SDS011;56411;52.964;10.540;2022-11-20T01:34:11;33.80;;;18.87;;
16101;SDS011;56411;52.964;10.540;2022-11-20T01:36:40;35.33;;;18.73;;
16101;SDS011;56411;52.964;10.540;2022-11-20T01:39:10;32.20;;;17.87;;
16101;SDS011;56411;52.964;10.540;2022-11-20T01:41:39;33.77;;;19.07;;
16101;SDS011;56411;52.964;10.540;2022-11-20T01:47:12;34.97;;;19.30;;
16101;SDS011;56411;52.964;10.540;2022-11-20T01:49:45;37.30;;;19.27;;
16101;SDS011;56411;52.964;10.540;2022-11-20T01:52:17;37.37;;;19.90;;
16101;SDS011;56411;52.964;10.540;2022-11-20T01:54:48;34.27;;;18.97;;
16101;SDS011;56411;52.964;10.540;2022-11-20T01:57:18;36.23;;;19.57;;
16101;SDS011;56411;52.964;10.540;2022-11-20T01:59:48;33.77;;;18.73;;
16101;SDS011;56411;52.964;10.540;2022-11-20T02:02:20;37.00;;;19.23;;
16101;SDS011;56411;52.964;10.540;2022-11-20T02:04:49;39.50;;;20.13;;
16101;SDS011;56411;52.964;10.540;2022-11-20T02:07:20;34.83;;;18.67;;
16101;SDS011;56411;52.964;10.540;2022-11-20T02:09:50;33.23;;;18.30;;
16101;SDS011;56411;52.964;10.540;2022-11-20T02:12:18;36.67;;;18.83;;
16101;SDS011;56411;52.964;10.540;2022-11-20T02:15:02;37.30;;;19.77;;
16101;SDS011;56411;52.964;10.540;2022-11-20T02:17:30;35.80;;;20.17;;
16101;SDS011;56411;52.964;10.540;2022-11-20T02:19:59;37.83;;;20.03;;
16101;SDS011;56411;52.964;10.540;2022-11-20T02:22:31;39.97;;;20.43;;
16101;SDS011;56411;52.964;10.540;2022-11-20T02:25:06;38.80;;;19.77;;
16101;SDS011;56411;52.964;10.540;2022-11-20T02:27:34;39.20;;;20.93;;
16101;SDS011;56411;52.964;10.540;2022-11-20T02:30:03;39.43;;;19.83;;
16101;SDS011;56411;52.964;10.540;2022-11-20T02:32:33;42.00;;;21.53;;
16101;SDS011;56411;52.964;10.540;2022-11-20T02:35:06;37.27;;;20.53;;
16101;SDS011;56411;52.964;10.540;2022-11-20T02:37:34;39.83;;;20.47;;
16101;SDS011;56411;52.964;10.540;2022-11-20T02:40:07;42.03;;;21.00;;
16101;SDS011;56411;52.964;10.540;2022-11-20T02:42:35;39.57;;;20.87;;
16101;SDS011;56411;52.964;10.540;2022-11-20T02:45:03;40.37;;;21.90;;
16101;SDS011;56411;52.964;10.540;2022-11-20T02:47:31;41.37;;;20.37;;
16101;SDS011;56411;52.964;10.540;2022-11-20T02:49:58;39.33;;;20.70;;
16101;SDS011;56411;52.964;10.540;2022-11-20T02:52:28;41.47;;;22.00;;
16101;SDS011;56411;52.964;10.540;2022-11-20T02:54:57;43.30;;;21.67;;
16101;SDS011;56411;52.964;10.540;2022-11-20T02:57:25;44.27;;;21.30;;
16101;SDS011;56411;52.964;10.540;2022-11-20T02:59:53;42.23;;;21.80;;
16101;SDS011;56411;52.964;10.540;2022-11-20T03:02:20;43.90;;;23.00;;
16101;SDS011;56411;52.964;10.540;2022-11-20T03:04:48;45.37;;;22.40;;
16101;SDS011;56411;52.964;10.540;2022-11-20T03:07:15;47.73;;;22.00;;
16101;SDS011;56411;52.964;10.540;2022-11-20T03:09:43;42.30;;;21.27;;
16101;SDS011;56411;52.964;10.540;2022-11-20T03:12:10;41.73;;;21.20;;
16101;SDS011;56411;52.964;10.540;2022-11-20T03:14:39;41.53;;;21.27;;
16101;SDS011;56411;52.964;10.540;2022-11-20T03:17:06;43.57;;;21.90;;
16101;SDS011;56411;52.964;10.540;2022-11-20T03:19:34;41.83;;;22.43;;
16101;SDS011;56411;52.964;10.540;2022-11-20T03:22:01;42.70;;;22.23;;
16101;SDS011;56411;52.964;10.540;2022-11-20T03:24:28;44.03;;;21.70;;
16101;SDS011;56411;52.964;10.540;2022-11-20T03:26:56;41.40;;;21.77;;
16101;SDS011;56411;52.964;10.540;2022-11-20T03:29:23;40.53;;;20.53;;
16101;SDS011;56411;52.964;10.540;2022-11-20T03:31:54;40.90;;;21.47;;
16101;SDS011;56411;52.964;10.540;2022-11-20T03:34:21;39.67;;;20.47;;
16101;SDS011;56411;52.964;10.540;2022-11-20T03:36:48;43.40;;;22.17;;
16101;SDS011;56411;52.964;10.540;2022-11-20T03:39:15;43.87;;;22.07;;
16101;SDS011;56411;52.964;10.540;2022-11-20T03:41:42;41.70;;;21.23;;
16101;SDS011;56411;52.964;10.540;2022-11-20T03:44:10;38.60;;;21.27;;
16101;SDS011;56411;52.964;10.540;2022-11-20T03:46:38;40.10;;;21.30;;
16101;SDS011;56411;52.964;10.540;2022-11-20T03:49:07;40.63;;;20.77;;
16101;SDS011;56411;52.964;10.540;2022-11-20T03:51:35;39.27;;;20.60;;
16101;SDS011;56411;52.964;10.540;2022-11-20T03:54:03;38.67;;;20.37;;
16101;SDS011;56411;52.964;10.540;2022-11-20T03:56:33;43.13;;;21.30;;
16101;SDS011;56411;52.964;10.540;2022-11-20T03:59:02;38.90;;;20.63;;
16101;SDS011;56411;52.964;10.540;2022-11-20T04:01:30;45.00;;;21.73;;
16101;SDS011;56411;52.964;10.540;2022-11-20T04:03:58;40.90;;;21.20;;
16101;SDS011;56411;52.964;10.540;2022-11-20T04:06:28;37.50;;;20.30;;
16101;SDS011;56411;52.964;10.540;2022-11-20T04:08:57;38.23;;;20.43;;
16101;SDS011;56411;52.964;10.540;2022-11-20T04:11:25;39.90;;;20.97;;
16101;SDS011;56411;52.964;10.540;2022-11-20T04:13:55;39.07;;;21.10;;
16101;SDS011;56411;52.964;10.540;2022-11-20T04:16:24;40.23;;;21.10;;
16101;SDS011;56411;52.964;10.540;2022-11-20T04:18:53;41.13;;;21.23;;
16101;SDS011;56411;52.964;10.540;2022-11-20T04:21:20;39.17;;;21.00;;
16101;SDS011;56411;52.964;10.540;2022-11-20T04:23:50;40.53;;;21.17;;
16101;SDS011;56411;52.964;10.540;2022-11-20T04:26:18;39.43;;;21.40;;
16101;SDS011;56411;52.964;10.540;2022-11-20T04:28:46;38.23;;;20.50;;
16101;SDS011;56411;52.964;10.540;2022-11-20T04:31:14;41.00;;;21.27;;
16101;SDS011;56411;52.964;10.540;2022-11-20T04:33:43;42.50;;;21.77;;
16101;SDS011;56411;52.964;10.540;2022-11-20T04:36:11;42.77;;;22.57;;
16101;SDS011;56411;52.964;10.540;2022-11-20T04:38:40;41.40;;;21.67;;
16101;SDS011;56411;52.964;10.540;2022-11-20T04:41:15;44.73;;;22.53;;
16101;SDS011;56411;52.964;10.540;2022-11-20T04:43:45;40.73;;;22.60;;
16101;SDS011;56411;52.964;10.540;2022-11-20T04:46:14;41.87;;;22.50;;
16101;SDS011;56411;52.964;10.540;2022-11-20T04:48:41;41.43;;;21.40;;
16101;SDS011;56411;52.964;10.540;2022-11-20T04:51:08;45.60;;;23.47;;
16101;SDS011;56411;52.964;10.540;2022-11-20T04:53:35;47.20;;;23.47;;
16101;SDS011;56411;52.964;10.540;2022-11-20T04:56:03;44.00;;;22.90;;
16101;SDS011;56411;52.964;10.540;2022-11-20T04:58:33;45.77;;;22.67;;
16101;SDS011;56411;52.964;10.540;2022-11-20T05:01:01;48.63;;;23.73;;
16101;SDS011;56411;52.964;10.540;2022-11-20T05:03:29;47.80;;;24.17;;
16101;SDS011;56411;52.964;10.540;2022-11-20T05:05:59;46.37;;;22.80;;
16101;SDS011;56411;52.964;10.540;2022-11-20T05:08:26;45.93;;;24.10;;
16101;SDS011;56411;52.964;10.540;2022-11-20T05:10:53;43.03;;;23.67;;
16101;SDS011;56411;52.964;10.540;2022-11-20T05:13:26;46.10;;;23.07;;
16101;SDS011;56411;52.964;10.540;2022-11-20T05:15:55;41.53;;;21.10;;
16101;SDS011;56411;52.964;10.540;2022-11-20T05:18:22;43.53;;;22.33;;
16101;SDS011;56411;52.964;10.540;2022-11-20T05:20:54;50.33;;;24.10;;
16101;SDS011;56411;52.964;10.540;2022-11-20T05:23:22;42.23;;;22.20;;
16101;SDS011;56411;52.964;10.540;2022-11-20T05:25:51;43.37;;;21.97;;
16101;SDS011;56411;52.964;10.540;2022-11-20T05:28:19;42.70;;;22.13;;
16101;SDS011;56411;52.964;10.540;2022-11-20T05:30:47;43.70;;;22.20;;
16101;SDS011;56411;52.964;10.540;2022-11-20T05:33:16;48.93;;;22.87;;
16101;SDS011;56411;52.964;10.540;2022-11-20T05:35:43;42.60;;;21.47;;
16101;SDS011;56411;52.964;10.540;2022-11-20T05:38:13;41.47;;;20.37;;
16101;SDS011;56411;52.964;10.540;2022-11-20T05:40:40;40.23;;;20.27;;
16101;SDS011;56411;52.964;10.540;2022-11-20T05:43:07;42.20;;;21.10;;
16101;SDS011;56411;52.964;10.540;2022-11-20T05:45:34;41.23;;;21.40;;
16101;SDS011;56411;52.964;10.540;2022-11-20T05:48:01;41.87;;;20.67;;
16101;SDS011;56411;52.964;10.540;2022-11-20T05:50:29;40.30;;;21.20;;
16101;SDS011;56411;52.964;10.540;2022-11-20T05:52:57;41.60;;;21.50;;
16101;SDS011;56411;52.964;10.540;2022-11-20T05:55:25;45.10;;;21.97;;
16101;SDS011;56411;52.964;10.540;2022-11-20T05:57:52;41.87;;;20.93;;
16101;SDS011;56411;52.964;10.540;2022-11-20T06:00:20;45.27;;;21.23;;
16101;SDS011;56411;52.964;10.540;2022-11-20T06:02:47;44.60;;;22.03;;
16101;SDS011;56411;52.964;10.540;2022-11-20T06:05:15;46.10;;;21.67;;
16101;SDS011;56411;52.964;10.540;2022-11-20T06:07:44;41.83;;;21.13;;
16101;SDS011;56411;52.964;10.540;2022-11-20T06:10:11;41.10;;;20.83;;
16101;SDS011;56411;52.964;10.540;2022-11-20T06:12:40;43.90;;;21.30;;
16101;SDS011;56411;52.964;10.540;2022-11-20T06:15:07;43.23;;;21.40;;
16101;SDS011;56411;52.964;10.540;2022-11-20T06:17:35;43.20;;;21.77;;
16101;SDS011;56411;52.964;10.540;2022-11-20T06:20:03;44.20;;;21.77;;
16101;SDS011;56411;52.964;10.540;2022-11-20T06:22:31;45.13;;;21.47;;
16101;SDS011;56411;52.964;10.540;2022-11-20T06:25:00;43.30;;;21.33;;
16101;SDS011;56411;52.964;10.540;2022-11-20T06:27:27;46.10;;;21.27;;
16101;SDS011;56411;52.964;10.540;2022-11-20T06:29:55;45.13;;;21.17;;
16101;SDS011;56411;52.964;10.540;2022-11-20T06:32:22;41.50;;;21.03;;
16101;SDS011;56411;52.964;10.540;2022-11-20T06:34:49;40.40;;;20.73;;
16101;SDS011;56411;52.964;10.540;2022-11-20T06:37:16;41.47;;;21.87;;
16101;SDS011;56411;52.964;10.540;2022-11-20T06:39:44;43.47;;;21.37;;
16101;SDS011;56411;52.964;10.540;2022-11-20T06:42:13;40.70;;;21.83;;
16101;SDS011;56411;52.964;10.540;2022-11-20T06:44:40;42.47;;;21.40;;
16101;SDS011;56411;52.964;10.540;2022-11-20T06:47:07;41.73;;;20.30;;
16101;SDS011;56411;52.964;10.540;2022-11-20T06:49:34;43.47;;;21.53;;
16101;SDS011;56411;52.964;10.540;2022-11-20T06:52:03;40.50;;;19.63;;
16101;SDS011;56411;52.964;10.540;2022-11-20T06:54:31;38.17;;;19.97;;
16101;SDS011;56411;52.964;10.540;2022-11-20T06:56:58;37.63;;;19.20;;
16101;SDS011;56411;52.964;10.540;2022-11-20T06:59:26;41.80;;;20.73;;
16101;SDS011;56411;52.964;10.540;2022-11-20T07:01:54;39.23;;;20.00;;
16101;SDS011;56411;52.964;10.540;2022-11-20T07:04:21;39.83;;;19.73;;
16101;SDS011;56411;52.964;10.540;2022-11-20T07:06:48;43.10;;;21.67;;
16101;SDS011;56411;52.964;10.540;2022-11-20T07:09:15;42.17;;;20.57;;
16101;SDS011;56411;52.964;10.540;2022-11-20T07:11:42;44.83;;;22.30;;
16101;SDS011;56411;52.964;10.540;2022-11-20T07:14:10;45.70;;;22.23;;
16101;SDS011;56411;52.964;10.540;2022-11-20T07:16:38;44.13;;;22.43;;
16101;SDS011;56411;52.964;10.540;2022-11-20T07:19:05;45.17;;;22.77;;
16101;SDS011;56411;52.964;10.540;2022-11-20T07:21:33;45.63;;;22.13;;
16101;SDS011;56411;52.964;10.540;2022-11-20T07:24:00;46.53;;;23.20;;
16101;SDS011;56411;52.964;10.540;2022-11-20T07:26:27;41.00;;;21.77;;
16101;SDS011;56411;52.964;10.540;2022-11-20T07:28:54;47.37;;;23.23;;
16101;SDS011;56411;52.964;10.540;2022-11-20T07:31:22;45.37;;;22.73;;
16101;SDS011;56411;52.964;10.540;2022-11-20T07:33:53;46.60;;;23.20;;
16101;SDS011;56411;52.964;10.540;2022-11-20T07:36:22;45.40;;;23.57;;
16101;SDS011;56411;52.964;10.540;2022-11-20T07:38:49;46.90;;;23.53;;
16101;SDS011;56411;52.964;10.540;2022-11-20T07:41:16;45.57;;;23.90;;
16101;SDS011;56411;52.964;10.540;2022-11-20T07:43:44;46.67;;;23.37;;
16101;SDS011;56411;52.964;10.540;2022-11-20T07:46:11;44.63;;;23.70;;
16101;SDS011;56411;52.964;10.540;2022-11-20T07:48:38;45.57;;;22.43;;
16101;SDS011;56411;52.964;10.540;2022-11-20T07:51:07;41.07;;;22.53;;
16101;SDS011;56411;52.964;10.540;2022-11-20T07:53:34;45.80;;;23.33;;
16101;SDS011;56411;52.964;10.540;2022-11-20T07:56:01;43.83;;;23.67;;
16101;SDS011;56411;52.964;10.540;2022-11-20T07:58:29;46.77;;;24.33;;
16101;SDS011;56411;52.964;10.540;2022-11-20T08:00:58;44.60;;;23.87;;
16101;SDS011;56411;52.964;10.540;2022-11-20T08:03:28;43.23;;;23.30;;
16101;SDS011;56411;52.964;10.540;2022-11-20T08:05:58;41.33;;;23.60;;
16101;SDS011;56411;52.964;10.540;2022-11-20T08:08:27;43.57;;;23.07;;
16101;SDS011;56411;52.964;10.540;2022-11-20T08:10:56;43.03;;;23.83;;
16101;SDS011;56411;52.964;10.540;2022-11-20T08:13:44;42.13;;;22.10;;
16101;SDS011;56411;52.964;10.540;2022-11-20T08:16:25;42.60;;;21.90;;
16101;SDS011;56411;52.964;10.540;2022-11-20T08:18:53;39.43;;;22.17;;
16101;SDS011;56411;52.964;10.540;2022-11-20T08:21:21;42.03;;;21.90;;
16101;SDS011;56411;52.964;10.540;2022-11-20T08:23:51;39.57;;;21.77;;
16101;SDS011;56411;52.964;10.540;2022-11-20T08:26:18;39.47;;;21.17;;
16101;SDS011;56411;52.964;10.540;2022-11-20T08:28:47;36.53;;;20.27;;
16101;SDS011;56411;52.964;10.540;2022-11-20T08:31:15;38.87;;;20.20;;
16101;SDS011;56411;52.964;10.540;2022-11-20T08:33:42;39.80;;;21.67;;
16101;SDS011;56411;52.964;10.540;2022-11-20T08:36:09;39.53;;;21.17;;
16101;SDS011;56411;52.964;10.540;2022-11-20T08:38:37;38.00;;;21.67;;
16101;SDS011;56411;52.964;10.540;2022-11-20T08:41:06;36.73;;;20.60;;
16101;SDS011;56411;52.964;10.540;2022-11-20T08:43:52;39.13;;;20.67;;
16101;SDS011;56411;52.964;10.540;2022-11-20T08:46:21;36.87;;;20.67;;
16101;SDS011;56411;52.964;10.540;2022-11-20T08:48:49;36.07;;;20.23;;
16101;SDS011;56411;52.964;10.540;2022-11-20T08:51:17;34.83;;;19.27;;
16101;SDS011;56411;52.964;10.540;2022-11-20T08:53:45;37.50;;;20.70;;
16101;SDS011;56411;52.964;10.540;2022-11-20T08:56:15;37.30;;;19.73;;
16101;SDS011;56411;52.964;10.540;2022-11-20T08:58:42;37.03;;;20.23;;
16101;SDS011;56411;52.964;10.540;2022-11-20T09:01:10;35.90;;;19.80;;
16101;SDS011;56411;52.964;10.540;2022-11-20T09:03:37;38.17;;;19.67;;
16101;SDS011;56411;52.964;10.540;2022-11-20T09:06:05;33.30;;;19.67;;
16101;SDS011;56411;52.964;10.540;2022-11-20T09:08:33;33.90;;;20.33;;
16101;SDS011;56411;52.964;10.540;2022-11-20T09:11:02;33.93;;;19.47;;
16101;SDS011;56411;52.964;10.540;2022-11-20T09:13:31;37.00;;;18.97;;
16101;SDS011;56411;52.964;10.540;2022-11-20T09:16:00;35.17;;;19.67;;
16101;SDS011;56411;52.964;10.540;2022-11-20T09:18:28;34.10;;;19.70;;
16101;SDS011;56411;52.964;10.540;2022-11-20T09:20:56;35.53;;;19.57;;
16101;SDS011;56411;52.964;10.540;2022-11-20T09:23:25;36.43;;;20.30;;
16101;SDS011;56411;52.964;10.540;2022-11-20T09:25:53;33.57;;;18.30;;
16101;SDS011;56411;52.964;10.540;2022-11-20T09:28:24;30.77;;;18.23;;
16101;SDS011;56411;52.964;10.540;2022-11-20T09:30:53;32.30;;;18.73;;
16101;SDS011;56411;52.964;10.540;2022-11-20T09:33:20;32.67;;;18.40;;
16101;SDS011;56411;52.964;10.540;2022-11-20T09:35:47;33.00;;;18.73;;
16101;SDS011;56411;52.964;10.540;2022-11-20T09:38:14;33.67;;;19.13;;
16101;SDS011;56411;52.964;10.540;2022-11-20T09:40:44;31.27;;;18.90;;
16101;SDS011;56411;52.964;10.540;2022-11-20T09:43:15;32.73;;;19.03;;
16101;SDS011;56411;52.964;10.540;2022-11-20T09:45:59;32.53;;;18.40;;
16101;SDS011;56411;52.964;10.540;2022-11-20T09:48:36;33.97;;;19.10;;
16101;SDS011;56411;52.964;10.540;2022-11-20T09:51:28;31.17;;;17.73;;
16101;SDS011;56411;52.964;10.540;2022-11-20T09:54:10;34.27;;;19.03;;
16101;SDS011;56411;52.964;10.540;2022-11-20T09:56:44;33.83;;;19.73;;
16101;SDS011;56411;52.964;10.540;2022-11-20T09:59:18;33.57;;;18.40;;
16101;SDS011;56411;52.964;10.540;2022-11-20T10:01:58;31.27;;;18.33;;
16101;SDS011;56411;52.964;10.540;2022-11-20T10:04:26;34.20;;;18.97;;
16101;SDS011;56411;52.964;10.540;2022-11-20T10:07:00;31.90;;;18.83;;
16101;SDS011;56411;52.964;10.540;2022-11-20T10:09:34;33.13;;;19.10;;
16101;SDS011;56411;52.964;10.540;2022-11-20T10:12:11;34.73;;;20.20;;
16101;SDS011;56411;52.964;10.540;2022-11-20T10:14:44;34.10;;;19.03;;
16101;SDS011;56411;52.964;10.540;2022-11-20T10:17:25;33.17;;;18.20;;
16101;SDS011;56411;52.964;10.540;2022-11-20T10:20:08;33.50;;;19.20;;
16101;SDS011;56411;52.964;10.540;2022-11-20T10:22:47;32.00;;;18.20;;
16101;SDS011;56411;52.964;10.540;2022-11-20T10:25:25;27.53;;;16.23;;
16101;SDS011;56411;52.964;10.540;2022-11-20T10:28:20;27.60;;;15.70;;
16101;SDS011;56411;52.964;10.540;2022-11-20T10:30:55;27.27;;;15.70;;
16101;SDS011;56411;52.964;10.540;2022-11-20T10:33:29;26.77;;;15.53;;
16101;SDS011;56411;52.964;10.540;2022-11-20T10:36:01;25.10;;;14.37;;
16101;SDS011;56411;52.964;10.540;2022-11-20T10:38:34;26.60;;;16.03;;
16101;SDS011;56411;52.964;10.540;2022-11-20T10:41:05;24.77;;;14.93;;
16101;SDS011;56411;52.964;10.540;2022-11-20T10:43:52;25.93;;;15.53;;
16101;SDS011;56411;52.964;10.540;2022-11-20T10:46:24;25.50;;;15.23;;
16101;SDS011;56411;52.964;10.540;2022-11-20T10:48:57;25.13;;;15.30;;
16101;SDS011;56411;52.964;10.540;2022-11-20T10:51:30;28.10;;;16.20;;
16101;SDS011;56411;52.964;10.540;2022-11-20T10:54:09;25.00;;;14.57;;
16101;SDS011;56411;52.964;10.540;2022-11-20T10:56:45;27.73;;;16.47;;
16101;SDS011;56411;52.964;10.540;2022-11-20T10:59:35;29.90;;;16.70;;
16101;SDS011;56411;52.964;10.540;2022-11-20T11:02:16;30.73;;;16.47;;
16101;SDS011;56411;52.964;10.540;2022-11-20T11:04:46;28.07;;;16.10;;
16101;SDS011;56411;52.964;10.540;2022-11-20T11:07:16;28.60;;;16.60;;
16101;SDS011;56411;52.964;10.540;2022-11-20T11:09:48;25.20;;;14.43;;
16101;SDS011;56411;52.964;10.540;2022-11-20T11:12:18;29.10;;;16.47;;
16101;SDS011;56411;52.964;10.540;2022-11-20T11:14:47;28.23;;;15.87;;
16101;SDS011;56411;52.964;10.540;2022-11-20T11:17:19;30.40;;;17.90;;
16101;SDS011;56411;52.964;10.540;2022-11-20T11:19:59;27.10;;;15.97;;
16101;SDS011;56411;52.964;10.540;2022-11-20T11:22:28;27.93;;;16.90;;
16101;SDS011;56411;52.964;10.540;2022-11-20T11:24:57;28.53;;;17.47;;
16101;SDS011;56411;52.964;10.540;2022-11-20T11:27:24;29.20;;;17.60;;
16101;SDS011;56411;52.964;10.540;2022-11-20T11:30:00;30.73;;;17.40;;
16101;SDS011;56411;52.964;10.540;2022-11-20T11:32:30;29.90;;;17.97;;
16101;SDS011;56411;52.964;10.540;2022-11-20T11:35:02;28.83;;;16.40;;
16101;SDS011;56411;52.964;10.540;2022-11-20T11:37:32;29.67;;;17.10;;
16101;SDS011;56411;52.964;10.540;2022-11-20T11:40:01;30.87;;;16.97;;
16101;SDS011;56411;52.964;10.540;2022-11-20T11:42:30;29.00;;;16.77;;
16101;SDS011;56411;52.964;10.540;2022-11-20T11:44:58;29.70;;;17.70;;
16101;SDS011;56411;52.964;10.540;2022-11-20T11:47:31;30.50;;;16.93;;
16101;SDS011;56411;52.964;10.540;2022-11-20T11:52:56;28.37;;;16.50;;
16101;SDS011;56411;52.964;10.540;2022-11-20T11:55:30;28.20;;;15.53;;
16101;SDS011;56411;52.964;10.540;2022-11-20T11:58:12;28.33;;;15.93;;
16101;SDS011;56411;52.964;10.540;2022-11-20T12:00:49;24.53;;;14.77;;
16101;SDS011;56411;52.964;10.540;2022-11-20T12:03:22;25.27;;;14.40;;
16101;SDS011;56411;52.964;10.540;2022-11-20T12:05:57;25.93;;;13.43;;
16101;SDS011;56411;52.964;10.540;2022-11-20T12:08:29;24.00;;;13.47;;
16101;SDS011;56411;52.964;10.540;2022-11-20T12:11:04;23.40;;;13.30;;
16101;SDS011;56411;52.964;10.540;2022-11-20T12:13:42;21.00;;;11.77;;
16101;SDS011;56411;52.964;10.540;2022-11-20T12:16:15;21.97;;;11.93;;
16101;SDS011;56411;52.964;10.540;2022-11-20T12:18:48;20.23;;;11.23;;
16101;SDS011;56411;52.964;10.540;2022-11-20T12:21:24;21.57;;;11.67;;
16101;SDS011;56411;52.964;10.540;2022-11-20T12:24:02;23.03;;;11.93;;
16101;SDS011;56411;52.964;10.540;2022-11-20T12:26:48;20.60;;;11.30;;
16101;SDS011;56411;52.964;10.540;2022-11-20T12:29:25;20.37;;;11.13;;
16101;SDS011;56411;52.964;10.540;2022-11-20T12:32:06;21.30;;;10.50;;
16101;SDS011;56411;52.964;10.540;2022-11-20T12:34:53;21.10;;;11.27;;
16101;SDS011;56411;52.964;10.540;2022-11-20T12:37:33;20.60;;;10.10;;
16101;SDS011;56411;52.964;10.540;2022-11-20T12:40:13;21.83;;;12.23;;
16101;SDS011;56411;52.964;10.540;2022-11-20T12:43:01;22.67;;;12.60;;
16101;SDS011;56411;52.964;10.540;2022-11-20T12:46:05;22.27;;;12.00;;
16101;SDS011;56411;52.964;10.540;2022-11-20T12:48:42;21.87;;;11.83;;
16101;SDS011;56411;52.964;10.540;2022-11-20T12:51:31;29.20;;;14.90;;
16101;SDS011;56411;52.964;10.540;2022-11-20T12:57:15;19.80;;;10.40;;
16101;SDS011;56411;52.964;10.540;2022-11-20T12:59:58;17.37;;;9.63;;
16101;SDS011;56411;52.964;10.540;2022-11-20T13:02:34;20.67;;;11.40;;
16101;SDS011;56411;52.964;10.540;2022-11-20T13:05:17;19.53;;;10.43;;
16101;SDS011;56411;52.964;10.540;2022-11-20T13:07:47;22.50;;;10.33;;
16101;SDS011;56411;52.964;10.540;2022-11-20T13:10:20;19.57;;;10.10;;
16101;SDS011;56411;52.964;10.540;2022-11-20T13:12:54;20.57;;;10.90;;
16101;SDS011;56411;52.964;10.540;2022-11-20T13:15:36;22.93;;;11.17;;
16101;SDS011;56411;52.964;10.540;2022-11-20T13:18:14;17.47;;;10.03;;
16101;SDS011;56411;52.964;10.540;2022-11-20T13:20:42;17.87;;;9.00;;
16101;SDS011;56411;52.964;10.540;2022-11-20T13:23:11;21.73;;;9.00;;
16101;SDS011;56411;52.964;10.540;2022-11-20T13:25:50;18.70;;;9.70;;
16101;SDS011;56411;52.964;10.540;2022-11-20T13:28:29;19.83;;;10.50;;
16101;SDS011;56411;52.964;10.540;2022-11-20T13:30:57;21.57;;;10.87;;
16101;SDS011;56411;52.964;10.540;2022-11-20T13:33:29;20.37;;;10.53;;
16101;SDS011;56411;52.964;10.540;2022-11-20T13:35:58;17.83;;;9.67;;
16101;SDS011;56411;52.964;10.540;2022-11-20T13:38:27;20.80;;;10.00;;
16101;SDS011;56411;52.964;10.540;2022-11-20T13:40:56;18.07;;;9.77;;
16101;SDS011;56411;52.964;10.540;2022-11-20T13:43:46;18.17;;;9.47;;
16101;SDS011;56411;52.964;10.540;2022-11-20T13:46:14;17.67;;;9.03;;
16101;SDS011;56411;52.964;10.540;2022-11-20T13:48:41;17.60;;;10.20;;
16101;SDS011;56411;52.964;10.540;2022-11-20T13:51:13;19.03;;;10.07;;
16101;SDS011;56411;52.964;10.540;2022-11-20T13:54:10;18.57;;;9.67;;
16101;SDS011;56411;52.964;10.540;2022-11-20T13:57:01;18.03;;;9.77;;
16101;SDS011;56411;52.964;10.540;2022-11-20T13:59:40;17.27;;;9.53;;
16101;SDS011;56411;52.964;10.540;2022-11-20T14:02:16;18.43;;;9.70;;
16101;SDS011;56411;52.964;10.540;2022-11-20T14:04:45;16.50;;;9.37;;
16101;SDS011;56411;52.964;10.540;2022-11-20T14:07:17;17.93;;;9.13;;
16101;SDS011;56411;52.964;10.540;2022-11-20T14:09:50;18.70;;;9.20;;
16101;SDS011;56411;52.964;10.540;2022-11-20T14:12:20;16.47;;;8.63;;
16101;SDS011;56411;52.964;10.540;2022-11-20T14:14:49;15.30;;;8.03;;
16101;SDS011;56411;52.964;10.540;2022-11-20T14:17:18;16.03;;;8.03;;
16101;SDS011;56411;52.964;10.540;2022-11-20T14:19:46;17.20;;;9.10;;
16101;SDS011;56411;52.964;10.540;2022-11-20T14:22:17;16.77;;;8.20;;
16101;SDS011;56411;52.964;10.540;2022-11-20T14:24:45;16.70;;;8.20;;
16101;SDS011;56411;52.964;10.540;2022-11-20T14:27:13;15.33;;;8.17;;
16101;SDS011;56411;52.964;10.540;2022-11-20T14:29:44;16.33;;;8.03;;
16101;SDS011;56411;52.964;10.540;2022-11-20T14:32:14;15.80;;;7.67;;
16101;SDS011;56411;52.964;10.540;2022-11-20T14:34:43;16.70;;;8.13;;
16101;SDS011;56411;52.964;10.540;2022-11-20T14:37:12;15.90;;;8.17;;
16101;SDS011;56411;52.964;10.540;2022-11-20T14:39:47;16.47;;;8.77;;